sensor_id;sensor_type;location;lat;lon;timestamp;pressure;altitude;pressure_sealevel;temperature;humidity
16821;BME280;8527;49.740;6.604;2023-04-03T00:02:37;100789.59;;;4.54;69.07
16821;BME280;8527;49.740;6.604;2023-04-03T00:07:39;100779.22;;;4.53;68.79
16821;BME280;8527;49.740;6.604;2023-04-03T00:12:37;100767.97;;;4.50;68.68
16821;BME280;8527;49.740;6.604;2023-04-03T00:17:41;100769.53;;;4.53;69.48
16821;BME280;8527;49.740;6.604;2023-04-03T00:22:42;100771.53;;;4.49;69.43
16821;BME280;8527;49.740;6.604;2023-04-03T00:27:41;100779.72;;;4.45;68.59
16821;BME280;8527;49.740;6.604;2023-04-03T00:32:39;100777.09;;;4.45;69.07
16821;BME280;8527;49.740;6.604;2023-04-03T00:37:38;100773.53;;;4.46;68.80
16821;BME280;8527;49.740;6.604;2023-04-03T00:42:42;100777.19;;;4.43;68.36
16821;BME280;8527;49.740;6.604;2023-04-03T00:47:49;100772.16;;;4.40;68.51
16821;BME280;8527;49.740;6.604;2023-04-03T00:52:48;100772.38;;;4.37;68.67
16821;BME280;8527;49.740;6.604;2023-04-03T00:58:00;100771.94;;;4.30;68.91
16821;BME280;8527;49.740;6.604;2023-04-03T01:02:59;100768.09;;;4.21;69.46
16821;BME280;8527;49.740;6.604;2023-04-03T01:07:58;100781.75;;;4.14;69.67
16821;BME280;8527;49.740;6.604;2023-04-03T01:13:19;100777.09;;;4.04;70.25
16821;BME280;8527;49.740;6.604;2023-04-03T01:18:17;100767.22;;;3.95;70.83
16821;BME280;8527;49.740;6.604;2023-04-03T01:23:27;100775.69;;;3.86;71.73
16821;BME280;8527;49.740;6.604;2023-04-03T01:28:39;100776.19;;;3.78;73.01
16821;BME280;8527;49.740;6.604;2023-04-03T01:33:43;100778.25;;;3.73;73.61
16821;BME280;8527;49.740;6.604;2023-04-03T01:38:44;100778.28;;;3.58;74.22
16821;BME280;8527;49.740;6.604;2023-04-03T01:43:43;100777.81;;;3.51;75.53
16821;BME280;8527;49.740;6.604;2023-04-03T01:48:44;100778.22;;;3.45;76.03
16821;BME280;8527;49.740;6.604;2023-04-03T01:53:42;100782.81;;;3.42;78.47
16821;BME280;8527;49.740;6.604;2023-04-03T01:58:41;100784.34;;;3.31;78.42
16821;BME280;8527;49.740;6.604;2023-04-03T02:03:47;100780.50;;;3.22;79.29
16821;BME280;8527;49.740;6.604;2023-04-03T02:08:47;100767.22;;;3.11;79.86
16821;BME280;8527;49.740;6.604;2023-04-03T02:13:48;100772.53;;;3.09;80.34
16821;BME280;8527;49.740;6.604;2023-04-03T02:18:49;100769.56;;;2.87;81.29
16821;BME280;8527;49.740;6.604;2023-04-03T02:23:48;100781.00;;;2.86;81.75
16821;BME280;8527;49.740;6.604;2023-04-03T02:28:49;100777.13;;;2.77;82.37
16821;BME280;8527;49.740;6.604;2023-04-03T02:34:00;100773.00;;;2.58;83.32
16821;BME280;8527;49.740;6.604;2023-04-03T02:38:59;100779.84;;;2.61;83.34
16821;BME280;8527;49.740;6.604;2023-04-03T02:43:58;100776.63;;;2.56;83.17
16821;BME280;8527;49.740;6.604;2023-04-03T02:49:00;100774.13;;;2.54;83.07
16821;BME280;8527;49.740;6.604;2023-04-03T02:54:07;100773.44;;;2.36;83.99
16821;BME280;8527;49.740;6.604;2023-04-03T02:59:13;100778.75;;;2.34;83.94
16821;BME280;8527;49.740;6.604;2023-04-03T03:04:29;100773.88;;;2.28;84.16
16821;BME280;8527;49.740;6.604;2023-04-03T03:09:33;100780.66;;;2.16;85.13
16821;BME280;8527;49.740;6.604;2023-04-03T03:14:38;100778.81;;;2.02;85.18
16821;BME280;8527;49.740;6.604;2023-04-03T03:19:40;100783.66;;;1.94;85.44
16821;BME280;8527;49.740;6.604;2023-04-03T03:24:39;100775.81;;;1.94;85.83
16821;BME280;8527;49.740;6.604;2023-04-03T03:29:37;100782.91;;;1.92;84.87
16821;BME280;8527;49.740;6.604;2023-04-03T03:34:35;100781.63;;;1.83;84.67
16821;BME280;8527;49.740;6.604;2023-04-03T03:39:36;100780.22;;;1.77;85.04
16821;BME280;8527;49.740;6.604;2023-04-03T03:44:40;100774.47;;;1.71;84.56
16821;BME280;8527;49.740;6.604;2023-04-03T03:49:41;100775.41;;;1.69;84.50
16821;BME280;8527;49.740;6.604;2023-04-03T03:54:42;100770.19;;;1.53;85.84
16821;BME280;8527;49.740;6.604;2023-04-03T03:59:41;100770.88;;;1.41;86.63
16821;BME280;8527;49.740;6.604;2023-04-03T04:04:43;100773.63;;;1.38;87.42
16821;BME280;8527;49.740;6.604;2023-04-03T04:09:48;100770.78;;;1.26;87.68
16821;BME280;8527;49.740;6.604;2023-04-03T04:14:51;100777.00;;;1.24;88.59
16821;BME280;8527;49.740;6.604;2023-04-03T04:19:52;100773.84;;;1.01;89.19
16821;BME280;8527;49.740;6.604;2023-04-03T04:24:53;100774.25;;;0.93;89.01
16821;BME280;8527;49.740;6.604;2023-04-03T04:29:52;100771.72;;;0.92;89.07
16821;BME280;8527;49.740;6.604;2023-04-03T04:34:53;100770.25;;;0.86;89.97
16821;BME280;8527;49.740;6.604;2023-04-03T04:39:58;100770.34;;;0.84;89.64
16821;BME280;8527;49.740;6.604;2023-04-03T04:45:03;100773.09;;;0.81;90.24
16821;BME280;8527;49.740;6.604;2023-04-03T04:50:18;100770.81;;;0.75;90.73
16821;BME280;8527;49.740;6.604;2023-04-03T04:55:24;100771.81;;;0.73;88.78
16821;BME280;8527;49.740;6.604;2023-04-03T05:00:26;100769.97;;;0.75;89.20
16821;BME280;8527;49.740;6.604;2023-04-03T05:05:24;100778.97;;;0.69;90.65
16821;BME280;8527;49.740;6.604;2023-04-03T05:10:32;100779.53;;;0.58;90.84
16821;BME280;8527;49.740;6.604;2023-04-03T05:15:31;100783.38;;;0.51;89.99
16821;BME280;8527;49.740;6.604;2023-04-03T05:20:33;100780.63;;;0.54;90.91
16821;BME280;8527;49.740;6.604;2023-04-03T05:25:34;100779.22;;;0.64;91.90
16821;BME280;8527;49.740;6.604;2023-04-03T05:30:51;100791.03;;;0.89;93.18
16821;BME280;8527;49.740;6.604;2023-04-03T05:35:50;100798.75;;;1.08;90.74
16821;BME280;8527;49.740;6.604;2023-04-03T05:41:00;100800.56;;;1.40;90.87
16821;BME280;8527;49.740;6.604;2023-04-03T05:45:58;100806.72;;;1.71;90.13
16821;BME280;8527;49.740;6.604;2023-04-03T05:50:57;100817.22;;;2.18;89.05
16821;BME280;8527;49.740;6.604;2023-04-03T05:56:01;100818.44;;;2.43;88.02
16821;BME280;8527;49.740;6.604;2023-04-03T06:01:00;100824.22;;;2.93;88.14
16821;BME280;8527;49.740;6.604;2023-04-03T06:05:59;100825.44;;;3.60;86.62
16821;BME280;8527;49.740;6.604;2023-04-03T06:10:58;100825.34;;;3.89;84.79
16821;BME280;8527;49.740;6.604;2023-04-03T06:16:00;100832.19;;;3.91;84.95
16821;BME280;8527;49.740;6.604;2023-04-03T06:21:01;100829.66;;;3.62;86.51
16821;BME280;8527;49.740;6.604;2023-04-03T06:26:00;100827.75;;;4.47;82.55
16821;BME280;8527;49.740;6.604;2023-04-03T06:31:01;100836.66;;;4.44;77.15
16821;BME280;8527;49.740;6.604;2023-04-03T06:35:59;100852.72;;;4.27;76.87
16821;BME280;8527;49.740;6.604;2023-04-03T06:41:00;100844.38;;;4.73;76.00
16821;BME280;8527;49.740;6.604;2023-04-03T06:46:01;100844.56;;;5.61;73.39
16821;BME280;8527;49.740;6.604;2023-04-03T06:51:04;100853.31;;;5.61;71.66
16821;BME280;8527;49.740;6.604;2023-04-03T06:56:12;100851.38;;;5.26;72.02
16821;BME280;8527;49.740;6.604;2023-04-03T07:01:20;100854.63;;;5.17;71.70
16821;BME280;8527;49.740;6.604;2023-04-03T07:06:19;100858.06;;;5.56;71.34
16821;BME280;8527;49.740;6.604;2023-04-03T07:11:17;100861.59;;;5.68;71.22
16821;BME280;8527;49.740;6.604;2023-04-03T07:16:20;100875.88;;;5.90;70.49
16821;BME280;8527;49.740;6.604;2023-04-03T07:21:19;100862.84;;;5.88;70.89
16821;BME280;8527;49.740;6.604;2023-04-03T07:26:17;100868.97;;;6.38;69.65
16821;BME280;8527;49.740;6.604;2023-04-03T07:31:18;100868.94;;;6.26;68.54
16821;BME280;8527;49.740;6.604;2023-04-03T07:36:22;100869.03;;;6.49;67.36
16821;BME280;8527;49.740;6.604;2023-04-03T07:41:23;100880.00;;;6.43;67.90
16821;BME280;8527;49.740;6.604;2023-04-03T07:46:28;100860.44;;;6.34;67.52
16821;BME280;8527;49.740;6.604;2023-04-03T07:51:29;100867.78;;;6.66;67.00
16821;BME280;8527;49.740;6.604;2023-04-03T07:56:27;100869.31;;;7.04;65.82
16821;BME280;8527;49.740;6.604;2023-04-03T08:01:31;100862.59;;;7.35;63.33
16821;BME280;8527;49.740;6.604;2023-04-03T08:06:31;100866.78;;;7.14;63.16
16821;BME280;8527;49.740;6.604;2023-04-03T08:11:32;100864.03;;;7.62;61.96
16821;BME280;8527;49.740;6.604;2023-04-03T08:16:34;100866.81;;;7.37;62.45
16821;BME280;8527;49.740;6.604;2023-04-03T08:21:33;100861.16;;;7.42;61.15
16821;BME280;8527;49.740;6.604;2023-04-03T08:26:36;100857.06;;;7.26;60.41
16821;BME280;8527;49.740;6.604;2023-04-03T08:31:43;100886.72;;;7.30;60.43
16821;BME280;8527;49.740;6.604;2023-04-03T08:36:41;100864.25;;;7.81;59.64
16821;BME280;8527;49.740;6.604;2023-04-03T08:41:42;100865.72;;;7.51;59.13
16821;BME280;8527;49.740;6.604;2023-04-03T08:46:57;100867.03;;;7.57;57.89
16821;BME280;8527;49.740;6.604;2023-04-03T08:52:04;100876.22;;;7.97;57.84
16821;BME280;8527;49.740;6.604;2023-04-03T08:57:06;100868.06;;;7.88;57.73
16821;BME280;8527;49.740;6.604;2023-04-03T09:02:18;100883.25;;;8.19;55.79
16821;BME280;8527;49.740;6.604;2023-04-03T09:07:26;100864.91;;;8.50;55.49
16821;BME280;8527;49.740;6.604;2023-04-03T09:12:34;100871.56;;;7.78;57.08
16821;BME280;8527;49.740;6.604;2023-04-03T09:17:49;100862.31;;;8.27;55.06
16821;BME280;8527;49.740;6.604;2023-04-03T09:22:51;100874.09;;;7.91;55.50
16821;BME280;8527;49.740;6.604;2023-04-03T09:27:59;100861.63;;;9.00;53.84
16821;BME280;8527;49.740;6.604;2023-04-03T09:33:01;100853.03;;;8.87;52.89
16821;BME280;8527;49.740;6.604;2023-04-03T09:38:16;100852.28;;;9.68;51.99
16821;BME280;8527;49.740;6.604;2023-04-03T09:43:27;100854.38;;;9.03;50.91
16821;BME280;8527;49.740;6.604;2023-04-03T09:48:31;100864.66;;;8.42;50.52
16821;BME280;8527;49.740;6.604;2023-04-03T09:53:35;100848.34;;;8.91;50.61
16821;BME280;8527;49.740;6.604;2023-04-03T09:58:38;100856.97;;;8.93;50.96
16821;BME280;8527;49.740;6.604;2023-04-03T10:03:39;100867.47;;;9.56;48.18
16821;BME280;8527;49.740;6.604;2023-04-03T10:08:41;100845.19;;;9.28;48.74
16821;BME280;8527;49.740;6.604;2023-04-03T10:13:54;100845.97;;;10.10;48.44
16821;BME280;8527;49.740;6.604;2023-04-03T10:19:05;100850.44;;;10.39;46.69
16821;BME280;8527;49.740;6.604;2023-04-03T10:24:11;100844.22;;;9.70;45.53
16821;BME280;8527;49.740;6.604;2023-04-03T10:29:18;100846.09;;;9.99;47.17
16821;BME280;8527;49.740;6.604;2023-04-03T10:34:27;100835.72;;;9.76;45.57
16821;BME280;8527;49.740;6.604;2023-04-03T10:39:31;100826.94;;;9.85;47.02
16821;BME280;8527;49.740;6.604;2023-04-03T10:44:42;100832.25;;;9.95;45.96
16821;BME280;8527;49.740;6.604;2023-04-03T10:49:49;100824.97;;;9.68;46.72
16821;BME280;8527;49.740;6.604;2023-04-03T10:54:59;100823.69;;;9.21;49.25
16821;BME280;8527;49.740;6.604;2023-04-03T11:00:07;100812.19;;;9.93;48.93
16821;BME280;8527;49.740;6.604;2023-04-03T11:05:21;100803.25;;;10.04;48.22
16821;BME280;8527;49.740;6.604;2023-04-03T11:10:30;100812.38;;;9.60;48.56
16821;BME280;8527;49.740;6.604;2023-04-03T11:15:32;100802.72;;;10.20;45.88
16821;BME280;8527;49.740;6.604;2023-04-03T11:20:34;100793.81;;;9.50;45.60
16821;BME280;8527;49.740;6.604;2023-04-03T11:25:35;100793.81;;;9.40;46.41
16821;BME280;8527;49.740;6.604;2023-04-03T11:30:41;100814.41;;;9.37;47.57
16821;BME280;8527;49.740;6.604;2023-04-03T11:35:47;100805.34;;;9.80;46.83
16821;BME280;8527;49.740;6.604;2023-04-03T11:40:50;100792.44;;;9.15;48.62
16821;BME280;8527;49.740;6.604;2023-04-03T11:45:56;100796.81;;;8.31;49.85
16821;BME280;8527;49.740;6.604;2023-04-03T11:51:00;100801.97;;;8.33;49.49
16821;BME280;8527;49.740;6.604;2023-04-03T11:56:04;100783.94;;;9.11;49.10
16821;BME280;8527;49.740;6.604;2023-04-03T12:01:44;100780.38;;;8.91;48.90
16821;BME280;8527;49.740;6.604;2023-04-03T12:06:54;100773.94;;;8.84;49.53
16821;BME280;8527;49.740;6.604;2023-04-03T12:11:59;100777.16;;;9.28;49.88
16821;BME280;8527;49.740;6.604;2023-04-03T12:16:58;100766.22;;;9.02;48.81
16821;BME280;8527;49.740;6.604;2023-04-03T12:22:14;100771.69;;;8.79;49.90
16821;BME280;8527;49.740;6.604;2023-04-03T12:27:25;100747.72;;;9.12;49.97
16821;BME280;8527;49.740;6.604;2023-04-03T12:32:36;100750.25;;;8.40;49.68
16821;BME280;8527;49.740;6.604;2023-04-03T12:43:20;100741.31;;;8.83;49.82
16821;BME280;8527;49.740;6.604;2023-04-03T12:48:26;100738.28;;;8.88;49.45
16821;BME280;8527;49.740;6.604;2023-04-03T12:53:31;100737.25;;;8.69;48.64
16821;BME280;8527;49.740;6.604;2023-04-03T12:58:32;100727.09;;;9.15;48.53
16821;BME280;8527;49.740;6.604;2023-04-03T13:03:37;100730.19;;;9.21;47.79
16821;BME280;8527;49.740;6.604;2023-04-03T13:08:48;100727.28;;;9.24;47.98
16821;BME280;8527;49.740;6.604;2023-04-03T13:14:01;100710.44;;;8.84;47.43
16821;BME280;8527;49.740;6.604;2023-04-03T13:19:00;100702.91;;;9.30;48.07
16821;BME280;8527;49.740;6.604;2023-04-03T13:24:02;100712.31;;;9.03;48.23
16821;BME280;8527;49.740;6.604;2023-04-03T13:29:04;100723.66;;;9.25;46.92
16821;BME280;8527;49.740;6.604;2023-04-03T13:34:06;100721.72;;;9.37;47.03
16821;BME280;8527;49.740;6.604;2023-04-03T13:39:21;100705.94;;;9.35;46.08
16821;BME280;8527;49.740;6.604;2023-04-03T13:44:28;100720.88;;;8.85;47.64
16821;BME280;8527;49.740;6.604;2023-04-03T13:49:30;100709.69;;;9.13;48.41
16821;BME280;8527;49.740;6.604;2023-04-03T13:54:33;100699.88;;;8.94;47.20
16821;BME280;8527;49.740;6.604;2023-04-03T13:59:35;100695.22;;;9.17;47.16
16821;BME280;8527;49.740;6.604;2023-04-03T14:04:46;100699.66;;;9.26;46.97
16821;BME280;8527;49.740;6.604;2023-04-03T14:09:48;100702.50;;;8.94;47.88
16821;BME280;8527;49.740;6.604;2023-04-03T14:14:47;100708.19;;;8.89;47.78
16821;BME280;8527;49.740;6.604;2023-04-03T14:19:46;100693.66;;;9.05;47.49
16821;BME280;8527;49.740;6.604;2023-04-03T14:24:44;100690.16;;;9.04;47.79
16821;BME280;8527;49.740;6.604;2023-04-03T14:29:46;100691.31;;;9.11;47.85
16821;BME280;8527;49.740;6.604;2023-04-03T14:34:45;100678.28;;;8.89;47.80
16821;BME280;8527;49.740;6.604;2023-04-03T14:39:44;100666.91;;;9.08;48.05
16821;BME280;8527;49.740;6.604;2023-04-03T14:44:46;100672.47;;;9.05;48.46
16821;BME280;8527;49.740;6.604;2023-04-03T14:49:44;100675.97;;;9.15;48.49
16821;BME280;8527;49.740;6.604;2023-04-03T14:54:43;100690.34;;;8.81;48.23
16821;BME280;8527;49.740;6.604;2023-04-03T14:59:41;100661.84;;;8.95;48.19
16821;BME280;8527;49.740;6.604;2023-04-03T15:04:43;100654.34;;;9.00;47.91
16821;BME280;8527;49.740;6.604;2023-04-03T15:09:43;100662.78;;;8.84;47.74
16821;BME280;8527;49.740;6.604;2023-04-03T15:14:42;100658.97;;;9.08;48.74
16821;BME280;8527;49.740;6.604;2023-04-03T15:19:43;100666.13;;;8.76;48.91
16821;BME280;8527;49.740;6.604;2023-04-03T15:24:42;100675.69;;;8.46;48.65
16821;BME280;8527;49.740;6.604;2023-04-03T15:29:42;100675.94;;;8.64;48.74
16821;BME280;8527;49.740;6.604;2023-04-03T15:34:43;100679.88;;;8.49;48.53
16821;BME280;8527;49.740;6.604;2023-04-03T15:39:42;100681.41;;;8.72;48.70
16821;BME280;8527;49.740;6.604;2023-04-03T15:44:40;100679.31;;;8.45;48.56
16821;BME280;8527;49.740;6.604;2023-04-03T15:49:39;100672.69;;;8.51;49.93
16821;BME280;8527;49.740;6.604;2023-04-03T15:54:40;100672.72;;;8.39;48.35
16821;BME280;8527;49.740;6.604;2023-04-03T15:59:38;100682.16;;;8.32;48.65
16821;BME280;8527;49.740;6.604;2023-04-03T16:04:36;100701.13;;;8.16;48.43
16821;BME280;8527;49.740;6.604;2023-04-03T16:09:35;100676.91;;;8.11;48.74
16821;BME280;8527;49.740;6.604;2023-04-03T16:14:36;100704.16;;;8.33;47.80
16821;BME280;8527;49.740;6.604;2023-04-03T16:19:35;100679.00;;;8.38;47.16
16821;BME280;8527;49.740;6.604;2023-04-03T16:24:33;100699.31;;;8.38;47.22
16821;BME280;8527;49.740;6.604;2023-04-03T16:29:33;100687.41;;;8.22;47.64
16821;BME280;8527;49.740;6.604;2023-04-03T16:34:34;100677.19;;;8.39;47.44
16821;BME280;8527;49.740;6.604;2023-04-03T16:39:33;100677.03;;;8.40;47.67
16821;BME280;8527;49.740;6.604;2023-04-03T16:44:31;100665.53;;;8.20;47.52
16821;BME280;8527;49.740;6.604;2023-04-03T16:49:29;100681.22;;;7.91;48.45
16821;BME280;8527;49.740;6.604;2023-04-03T16:54:32;100691.97;;;7.99;47.94
16821;BME280;8527;49.740;6.604;2023-04-03T16:59:30;100690.09;;;7.89;47.75
16821;BME280;8527;49.740;6.604;2023-04-03T17:04:29;100698.47;;;7.95;47.80
16821;BME280;8527;49.740;6.604;2023-04-03T17:09:27;100684.75;;;8.01;47.76
16821;BME280;8527;49.740;6.604;2023-04-03T17:14:28;100697.22;;;7.78;47.42
16821;BME280;8527;49.740;6.604;2023-04-03T17:19:27;100689.72;;;7.62;47.88
16821;BME280;8527;49.740;6.604;2023-04-03T17:24:26;100689.78;;;7.39;47.79
16821;BME280;8527;49.740;6.604;2023-04-03T17:29:27;100698.47;;;7.29;47.86
16821;BME280;8527;49.740;6.604;2023-04-03T17:34:26;100702.91;;;7.17;48.45
16821;BME280;8527;49.740;6.604;2023-04-03T17:39:24;100694.81;;;7.09;48.96
16821;BME280;8527;49.740;6.604;2023-04-03T17:44:28;100698.63;;;7.05;49.38
16821;BME280;8527;49.740;6.604;2023-04-03T17:49:27;100709.78;;;6.97;49.27
16821;BME280;8527;49.740;6.604;2023-04-03T17:54:27;100698.41;;;6.85;48.27
16821;BME280;8527;49.740;6.604;2023-04-03T17:59:29;100711.34;;;6.77;49.20
16821;BME280;8527;49.740;6.604;2023-04-03T18:04:27;100704.88;;;6.70;48.80
16821;BME280;8527;49.740;6.604;2023-04-03T18:09:29;100716.16;;;6.60;50.15
16821;BME280;8527;49.740;6.604;2023-04-03T18:14:33;100722.13;;;6.51;49.34
16821;BME280;8527;49.740;6.604;2023-04-03T18:19:33;100734.31;;;6.41;49.07
16821;BME280;8527;49.740;6.604;2023-04-03T18:24:33;100731.31;;;6.34;49.70
16821;BME280;8527;49.740;6.604;2023-04-03T18:29:36;100733.56;;;6.27;50.31
16821;BME280;8527;49.740;6.604;2023-04-03T18:34:35;100738.00;;;6.15;50.44
16821;BME280;8527;49.740;6.604;2023-04-03T18:39:34;100742.38;;;6.03;50.97
16821;BME280;8527;49.740;6.604;2023-04-03T18:44:36;100757.97;;;5.94;51.25
16821;BME280;8527;49.740;6.604;2023-04-03T18:49:37;100759.56;;;5.96;52.13
16821;BME280;8527;49.740;6.604;2023-04-03T18:54:37;100769.91;;;5.86;52.00
16821;BME280;8527;49.740;6.604;2023-04-03T18:59:39;100764.81;;;5.72;52.75
16821;BME280;8527;49.740;6.604;2023-04-03T19:04:41;100766.09;;;5.66;53.22
16821;BME280;8527;49.740;6.604;2023-04-03T19:09:44;100764.88;;;5.59;54.06
16821;BME280;8527;49.740;6.604;2023-04-03T19:14:45;100773.53;;;5.48;53.77
16821;BME280;8527;49.740;6.604;2023-04-03T19:19:43;100774.47;;;5.47;54.42
16821;BME280;8527;49.740;6.604;2023-04-03T19:24:43;100781.25;;;5.38;55.08
16821;BME280;8527;49.740;6.604;2023-04-03T19:29:46;100786.44;;;5.27;56.25
16821;BME280;8527;49.740;6.604;2023-04-03T19:34:45;100781.06;;;5.15;58.03
16821;BME280;8527;49.740;6.604;2023-04-03T19:39:44;100778.34;;;5.04;59.44
16821;BME280;8527;49.740;6.604;2023-04-03T19:44:46;100780.38;;;4.87;59.25
16821;BME280;8527;49.740;6.604;2023-04-03T19:49:45;100787.22;;;4.90;61.66
16821;BME280;8527;49.740;6.604;2023-04-03T19:54:46;100791.09;;;4.71;60.51
16821;BME280;8527;49.740;6.604;2023-04-03T19:59:48;100794.78;;;4.69;60.72
16821;BME280;8527;49.740;6.604;2023-04-03T20:04:46;100787.50;;;4.59;62.36
16821;BME280;8527;49.740;6.604;2023-04-03T20:09:45;100798.84;;;4.47;63.02
16821;BME280;8527;49.740;6.604;2023-04-03T20:14:44;100798.63;;;4.37;64.03
16821;BME280;8527;49.740;6.604;2023-04-03T20:19:45;100802.16;;;4.23;63.74
16821;BME280;8527;49.740;6.604;2023-04-03T20:24:44;100801.06;;;4.13;65.07
16821;BME280;8527;49.740;6.604;2023-04-03T20:29:43;100793.06;;;4.01;65.98
16821;BME280;8527;49.740;6.604;2023-04-03T20:34:44;100798.50;;;3.98;65.43
16821;BME280;8527;49.740;6.604;2023-04-03T20:39:47;100799.59;;;3.81;65.10
16821;BME280;8527;49.740;6.604;2023-04-03T20:44:45;100801.47;;;3.79;64.46
16821;BME280;8527;49.740;6.604;2023-04-03T20:49:46;100787.78;;;3.88;62.57
16821;BME280;8527;49.740;6.604;2023-04-03T20:54:48;100794.50;;;3.92;62.21
16821;BME280;8527;49.740;6.604;2023-04-03T20:59:47;100792.00;;;3.76;62.85
16821;BME280;8527;49.740;6.604;2023-04-03T21:04:52;100799.88;;;3.76;62.77
16821;BME280;8527;49.740;6.604;2023-04-03T21:20:49;100801.63;;;3.48;65.90
16821;BME280;8527;49.740;6.604;2023-04-03T21:25:48;100805.50;;;3.43;65.16
16821;BME280;8527;49.740;6.604;2023-04-03T21:30:46;100802.94;;;3.41;64.00
16821;BME280;8527;49.740;6.604;2023-04-03T21:35:44;100799.88;;;3.34;65.28
16821;BME280;8527;49.740;6.604;2023-04-03T21:40:45;100803.81;;;3.27;65.31
16821;BME280;8527;49.740;6.604;2023-04-03T21:45:45;100803.56;;;3.17;64.05
16821;BME280;8527;49.740;6.604;2023-04-03T21:50:45;100807.28;;;3.28;62.34
16821;BME280;8527;49.740;6.604;2023-04-03T21:55:56;100807.56;;;3.37;61.27
16821;BME280;8527;49.740;6.604;2023-04-03T22:00:56;100806.81;;;3.35;61.31
16821;BME280;8527;49.740;6.604;2023-04-03T22:05:57;100795.09;;;3.27;62.11
16821;BME280;8527;49.740;6.604;2023-04-03T22:11:01;100799.88;;;3.20;62.52
16821;BME280;8527;49.740;6.604;2023-04-03T22:16:00;100795.69;;;3.17;62.65
16821;BME280;8527;49.740;6.604;2023-04-03T22:20:59;100802.63;;;3.04;63.22
16821;BME280;8527;49.740;6.604;2023-04-03T22:26:03;100801.22;;;2.98;64.01
16821;BME280;8527;49.740;6.604;2023-04-03T22:31:03;100802.91;;;2.85;64.74
16821;BME280;8527;49.740;6.604;2023-04-03T22:36:02;100810.91;;;2.67;65.09
16821;BME280;8527;49.740;6.604;2023-04-03T22:41:05;100800.53;;;2.65;64.96
16821;BME280;8527;49.740;6.604;2023-04-03T22:46:05;100803.69;;;2.56;66.53
16821;BME280;8527;49.740;6.604;2023-04-03T22:51:04;100793.00;;;2.45;68.57
16821;BME280;8527;49.740;6.604;2023-04-03T22:56:07;100794.44;;;2.34;69.07
16821;BME280;8527;49.740;6.604;2023-04-03T23:01:06;100804.59;;;2.41;65.04
16821;BME280;8527;49.740;6.604;2023-04-03T23:06:06;100811.22;;;2.46;64.60
16821;BME280;8527;49.740;6.604;2023-04-03T23:11:08;100811.66;;;2.38;65.76
16821;BME280;8527;49.740;6.604;2023-04-03T23:16:07;100812.72;;;2.36;64.85
16821;BME280;8527;49.740;6.604;2023-04-03T23:21:06;100819.13;;;2.30;65.68
16821;BME280;8527;49.740;6.604;2023-04-03T23:26:04;100808.50;;;2.17;67.09
16821;BME280;8527;49.740;6.604;2023-04-03T23:31:06;100815.69;;;2.14;66.42
16821;BME280;8527;49.740;6.604;2023-04-03T23:36:06;100817.47;;;2.13;65.72
16821;BME280;8527;49.740;6.604;2023-04-03T23:41:05;100821.97;;;2.11;65.65
16821;BME280;8527;49.740;6.604;2023-04-03T23:46:06;100821.72;;;2.00;64.90
16821;BME280;8527;49.740;6.604;2023-04-03T23:51:05;100815.63;;;1.83;66.56
16821;BME280;8527;49.740;6.604;2023-04-03T23:56:04;100812.13;;;1.84;67.96
